sensor_id;sensor_type;location;lat;lon;timestamp;pressure;altitude;pressure_sealevel;temperature;humidity
55801;BME280;41730;51.960;20.158;2022-10-17T00:01:22;101067.92;;;17.02;68.51
55801;BME280;41730;51.960;20.158;2022-10-17T00:03:51;101070.80;;;16.89;68.98
55801;BME280;41730;51.960;20.158;2022-10-17T00:06:20;101071.34;;;16.91;69.16
55801;BME280;41730;51.960;20.158;2022-10-17T00:08:49;101070.73;;;16.84;69.39
55801;BME280;41730;51.960;20.158;2022-10-17T00:11:21;101078.27;;;16.91;69.24
55801;BME280;41730;51.960;20.158;2022-10-17T00:13:52;101076.27;;;17.00;69.19
55801;BME280;41730;51.960;20.158;2022-10-17T00:16:24;101080.97;;;17.05;68.72
55801;BME280;41730;51.960;20.158;2022-10-17T00:18:54;101080.95;;;16.94;69.16
55801;BME280;41730;51.960;20.158;2022-10-17T00:21:24;101080.56;;;16.98;68.96
55801;BME280;41730;51.960;20.158;2022-10-17T00:23:53;101080.46;;;17.06;68.69
55801;BME280;41730;51.960;20.158;2022-10-17T00:26:22;101080.46;;;17.01;68.98
55801;BME280;41730;51.960;20.158;2022-10-17T00:28:52;101092.00;;;17.10;68.49
55801;BME280;41730;51.960;20.158;2022-10-17T00:31:23;101092.01;;;17.08;68.79
55801;BME280;41730;51.960;20.158;2022-10-17T00:33:52;101094.01;;;17.20;68.16
55801;BME280;41730;51.960;20.158;2022-10-17T00:36:22;101100.15;;;17.06;68.56
55801;BME280;41730;51.960;20.158;2022-10-17T00:38:53;101092.58;;;16.98;68.81
55801;BME280;41730;51.960;20.158;2022-10-17T00:41:23;101087.27;;;16.91;69.16
55801;BME280;41730;51.960;20.158;2022-10-17T00:43:55;101084.51;;;16.97;69.15
55801;BME280;41730;51.960;20.158;2022-10-17T00:46:27;101086.98;;;16.92;69.10
55801;BME280;41730;51.960;20.158;2022-10-17T00:49:01;101083.81;;;16.86;69.67
55801;BME280;41730;51.960;20.158;2022-10-17T00:51:35;101081.29;;;16.92;69.19
55801;BME280;41730;51.960;20.158;2022-10-17T00:54:06;101081.70;;;16.92;69.18
55801;BME280;41730;51.960;20.158;2022-10-17T00:56:36;101079.73;;;16.82;69.58
55801;BME280;41730;51.960;20.158;2022-10-17T00:59:08;101073.89;;;16.82;69.91
55801;BME280;41730;51.960;20.158;2022-10-17T01:01:38;101069.80;;;16.80;69.94
55801;BME280;41730;51.960;20.158;2022-10-17T01:04:07;101066.09;;;16.85;69.88
55801;BME280;41730;51.960;20.158;2022-10-17T01:06:36;101063.52;;;16.81;69.70
55801;BME280;41730;51.960;20.158;2022-10-17T01:09:05;101065.56;;;16.73;69.88
55801;BME280;41730;51.960;20.158;2022-10-17T01:11:41;101055.41;;;16.60;69.82
55801;BME280;41730;51.960;20.158;2022-10-17T01:14:17;101057.73;;;16.53;70.06
55801;BME280;41730;51.960;20.158;2022-10-17T01:16:52;101056.08;;;16.55;69.98
55801;BME280;41730;51.960;20.158;2022-10-17T01:19:43;101057.45;;;16.54;69.82
55801;BME280;41730;51.960;20.158;2022-10-17T01:22:21;101067.96;;;16.42;70.25
55801;BME280;41730;51.960;20.158;2022-10-17T01:25:09;101068.09;;;16.33;70.20
55801;BME280;41730;51.960;20.158;2022-10-17T01:27:59;101073.23;;;16.29;70.28
55801;BME280;41730;51.960;20.158;2022-10-17T01:30:55;101079.59;;;16.29;70.00
55801;BME280;41730;51.960;20.158;2022-10-17T01:33:40;101076.89;;;16.20;69.95
55801;BME280;41730;51.960;20.158;2022-10-17T01:36:14;101077.79;;;16.07;70.39
55801;BME280;41730;51.960;20.158;2022-10-17T01:38:49;101077.44;;;16.03;70.36
55801;BME280;41730;51.960;20.158;2022-10-17T01:41:26;101078.95;;;16.06;70.16
55801;BME280;41730;51.960;20.158;2022-10-17T01:44:00;101081.20;;;16.00;70.35
55801;BME280;41730;51.960;20.158;2022-10-17T01:46:33;101086.19;;;15.94;70.47
55801;BME280;41730;51.960;20.158;2022-10-17T01:49:04;101082.95;;;15.92;70.60
55801;BME280;41730;51.960;20.158;2022-10-17T01:51:37;101084.83;;;15.95;70.69
55801;BME280;41730;51.960;20.158;2022-10-17T01:54:12;101099.05;;;15.96;70.66
55801;BME280;41730;51.960;20.158;2022-10-17T01:56:43;101100.88;;;15.88;70.80
55801;BME280;41730;51.960;20.158;2022-10-17T01:59:16;101099.48;;;15.80;71.29
55801;BME280;41730;51.960;20.158;2022-10-17T02:01:48;101105.19;;;15.91;70.84
55801;BME280;41730;51.960;20.158;2022-10-17T02:04:18;101105.44;;;15.96;70.76
55801;BME280;41730;51.960;20.158;2022-10-17T02:06:48;101110.04;;;16.08;70.33
55801;BME280;41730;51.960;20.158;2022-10-17T02:09:19;101109.68;;;16.04;70.39
55801;BME280;41730;51.960;20.158;2022-10-17T02:11:54;101106.55;;;16.00;70.44
55801;BME280;41730;51.960;20.158;2022-10-17T02:14:34;101102.66;;;15.95;70.56
55801;BME280;41730;51.960;20.158;2022-10-17T02:17:15;101097.54;;;15.84;71.05
55801;BME280;41730;51.960;20.158;2022-10-17T02:19:52;101095.05;;;15.74;71.45
55801;BME280;41730;51.960;20.158;2022-10-17T02:22:32;101093.11;;;15.66;71.29
55801;BME280;41730;51.960;20.158;2022-10-17T02:25:11;101095.54;;;15.63;71.57
55801;BME280;41730;51.960;20.158;2022-10-17T02:27:44;101101.92;;;15.60;71.30
55801;BME280;41730;51.960;20.158;2022-10-17T02:30:25;101098.16;;;15.47;72.03
55801;BME280;41730;51.960;20.158;2022-10-17T02:32:59;101097.72;;;15.46;72.12
55801;BME280;41730;51.960;20.158;2022-10-17T02:35:33;101097.31;;;15.54;71.58
55801;BME280;41730;51.960;20.158;2022-10-17T02:38:03;101098.25;;;15.46;71.95
55801;BME280;41730;51.960;20.158;2022-10-17T02:40:35;101100.45;;;15.49;71.71
55801;BME280;41730;51.960;20.158;2022-10-17T02:43:05;101102.42;;;15.41;71.96
55801;BME280;41730;51.960;20.158;2022-10-17T02:45:35;101104.25;;;15.46;71.62
55801;BME280;41730;51.960;20.158;2022-10-17T02:48:07;101110.56;;;15.51;71.30
55801;BME280;41730;51.960;20.158;2022-10-17T02:50:44;101106.09;;;15.44;71.28
55801;BME280;41730;51.960;20.158;2022-10-17T02:53:24;101108.41;;;15.35;71.65
55801;BME280;41730;51.960;20.158;2022-10-17T02:55:58;101115.37;;;15.37;71.65
55801;BME280;41730;51.960;20.158;2022-10-17T02:58:31;101118.40;;;15.36;71.78
55801;BME280;41730;51.960;20.158;2022-10-17T03:01:01;101124.41;;;15.48;71.36
55801;BME280;41730;51.960;20.158;2022-10-17T03:03:31;101132.34;;;15.55;71.32
55801;BME280;41730;51.960;20.158;2022-10-17T03:06:00;101147.25;;;15.46;71.48
55801;BME280;41730;51.960;20.158;2022-10-17T03:08:30;101155.06;;;15.27;72.10
55801;BME280;41730;51.960;20.158;2022-10-17T03:10:59;101161.00;;;15.13;72.44
55801;BME280;41730;51.960;20.158;2022-10-17T03:13:29;101166.09;;;15.08;72.65
55801;BME280;41730;51.960;20.158;2022-10-17T03:15:59;101163.58;;;15.10;72.78
55801;BME280;41730;51.960;20.158;2022-10-17T03:18:28;101168.52;;;14.94;73.19
55801;BME280;41730;51.960;20.158;2022-10-17T03:20:57;101172.92;;;14.88;73.62
55801;BME280;41730;51.960;20.158;2022-10-17T03:23:26;101166.01;;;14.99;73.19
55801;BME280;41730;51.960;20.158;2022-10-17T03:25:56;101156.41;;;15.02;73.05
55801;BME280;41730;51.960;20.158;2022-10-17T03:28:30;101155.20;;;15.13;72.84
55801;BME280;41730;51.960;20.158;2022-10-17T03:31:06;101156.24;;;15.24;72.44
55801;BME280;41730;51.960;20.158;2022-10-17T03:33:36;101160.11;;;15.22;72.50
55801;BME280;41730;51.960;20.158;2022-10-17T03:36:09;101153.86;;;15.12;72.89
55801;BME280;41730;51.960;20.158;2022-10-17T03:38:39;101152.41;;;15.01;73.24
55801;BME280;41730;51.960;20.158;2022-10-17T03:41:08;101151.90;;;15.05;73.11
55801;BME280;41730;51.960;20.158;2022-10-17T03:43:37;101151.73;;;15.10;72.78
55801;BME280;41730;51.960;20.158;2022-10-17T03:46:07;101157.35;;;15.15;72.70
55801;BME280;41730;51.960;20.158;2022-10-17T03:48:36;101159.00;;;15.19;72.55
55801;BME280;41730;51.960;20.158;2022-10-17T03:51:07;101161.68;;;15.22;72.37
55801;BME280;41730;51.960;20.158;2022-10-17T03:53:36;101166.51;;;15.11;72.72
55801;BME280;41730;51.960;20.158;2022-10-17T03:56:16;101163.29;;;15.07;72.87
55801;BME280;41730;51.960;20.158;2022-10-17T03:58:46;101161.40;;;15.21;72.34
55801;BME280;41730;51.960;20.158;2022-10-17T04:01:17;101156.90;;;15.24;71.83
55801;BME280;41730;51.960;20.158;2022-10-17T04:03:49;101153.05;;;15.13;72.16
55801;BME280;41730;51.960;20.158;2022-10-17T04:06:19;101152.17;;;15.09;72.43
55801;BME280;41730;51.960;20.158;2022-10-17T04:08:48;101150.30;;;15.00;72.44
55801;BME280;41730;51.960;20.158;2022-10-17T04:11:19;101158.00;;;14.85;73.11
55801;BME280;41730;51.960;20.158;2022-10-17T04:13:52;101156.84;;;14.88;73.08
55801;BME280;41730;51.960;20.158;2022-10-17T04:16:22;101158.91;;;14.84;72.90
55801;BME280;41730;51.960;20.158;2022-10-17T04:18:54;101168.80;;;14.78;73.16
55801;BME280;41730;51.960;20.158;2022-10-17T04:21:23;101170.73;;;14.74;73.24
55801;BME280;41730;51.960;20.158;2022-10-17T04:23:57;101169.13;;;14.70;73.54
55801;BME280;41730;51.960;20.158;2022-10-17T04:26:26;101178.52;;;14.74;73.37
55801;BME280;41730;51.960;20.158;2022-10-17T04:28:55;101183.27;;;14.74;73.39
55801;BME280;41730;51.960;20.158;2022-10-17T04:31:24;101187.51;;;14.83;73.24
55801;BME280;41730;51.960;20.158;2022-10-17T04:33:53;101186.52;;;14.96;72.68
55801;BME280;41730;51.960;20.158;2022-10-17T04:36:22;101188.76;;;14.93;72.67
55801;BME280;41730;51.960;20.158;2022-10-17T04:38:50;101190.79;;;14.92;72.79
55801;BME280;41730;51.960;20.158;2022-10-17T04:41:19;101199.81;;;14.89;72.60
55801;BME280;41730;51.960;20.158;2022-10-17T04:43:48;101198.42;;;14.79;73.00
55801;BME280;41730;51.960;20.158;2022-10-17T04:46:18;101195.55;;;14.77;73.10
55801;BME280;41730;51.960;20.158;2022-10-17T04:48:47;101193.73;;;14.76;73.01
55801;BME280;41730;51.960;20.158;2022-10-17T04:51:17;101194.79;;;14.84;72.58
55801;BME280;41730;51.960;20.158;2022-10-17T04:53:51;101197.48;;;14.79;72.30
55801;BME280;41730;51.960;20.158;2022-10-17T04:56:22;101201.38;;;14.60;72.75
55801;BME280;41730;51.960;20.158;2022-10-17T04:58:52;101205.41;;;14.65;72.61
55801;BME280;41730;51.960;20.158;2022-10-17T05:01:21;101206.89;;;14.81;72.33
55801;BME280;41730;51.960;20.158;2022-10-17T05:03:51;101202.19;;;14.82;72.12
55801;BME280;41730;51.960;20.158;2022-10-17T05:06:22;101193.75;;;14.84;71.94
55801;BME280;41730;51.960;20.158;2022-10-17T05:08:51;101191.11;;;14.92;71.57
55801;BME280;41730;51.960;20.158;2022-10-17T05:11:22;101188.38;;;14.85;71.67
55801;BME280;41730;51.960;20.158;2022-10-17T05:13:52;101195.56;;;14.71;71.82
55801;BME280;41730;51.960;20.158;2022-10-17T05:16:21;101191.98;;;14.57;72.36
55801;BME280;41730;51.960;20.158;2022-10-17T05:18:52;101193.21;;;14.67;72.03
55801;BME280;41730;51.960;20.158;2022-10-17T05:21:23;101196.36;;;14.72;71.77
55801;BME280;41730;51.960;20.158;2022-10-17T05:23:52;101208.94;;;14.50;72.27
55801;BME280;41730;51.960;20.158;2022-10-17T05:26:22;101221.63;;;14.50;72.35
55801;BME280;41730;51.960;20.158;2022-10-17T05:28:51;101229.97;;;14.41;72.75
55801;BME280;41730;51.960;20.158;2022-10-17T05:31:21;101235.41;;;14.37;72.96
55801;BME280;41730;51.960;20.158;2022-10-17T05:33:50;101233.75;;;14.38;72.91
55801;BME280;41730;51.960;20.158;2022-10-17T05:36:19;101236.62;;;14.35;73.05
55801;BME280;41730;51.960;20.158;2022-10-17T05:38:50;101243.81;;;14.42;72.89
55801;BME280;41730;51.960;20.158;2022-10-17T05:41:19;101249.45;;;14.51;72.60
55801;BME280;41730;51.960;20.158;2022-10-17T05:43:48;101259.91;;;14.54;72.58
55801;BME280;41730;51.960;20.158;2022-10-17T05:46:17;101259.61;;;14.86;71.80
55801;BME280;41730;51.960;20.158;2022-10-17T05:48:46;101256.31;;;15.06;71.17
55801;BME280;41730;51.960;20.158;2022-10-17T05:51:15;101257.86;;;15.27;70.91
55801;BME280;41730;51.960;20.158;2022-10-17T05:53:44;101265.38;;;15.49;70.47
55801;BME280;41730;51.960;20.158;2022-10-17T05:56:13;101269.58;;;15.41;70.72
55801;BME280;41730;51.960;20.158;2022-10-17T05:58:42;101272.08;;;15.39;70.93
55801;BME280;41730;51.960;20.158;2022-10-17T06:01:24;101270.93;;;15.38;70.86
55801;BME280;41730;51.960;20.158;2022-10-17T06:03:53;101273.55;;;15.48;70.67
55801;BME280;41730;51.960;20.158;2022-10-17T06:06:22;101274.55;;;15.51;70.64
55801;BME280;41730;51.960;20.158;2022-10-17T06:08:51;101268.13;;;15.56;70.45
55801;BME280;41730;51.960;20.158;2022-10-17T06:11:20;101266.64;;;15.50;70.44
55801;BME280;41730;51.960;20.158;2022-10-17T06:13:48;101274.21;;;15.41;70.77
55801;BME280;41730;51.960;20.158;2022-10-17T06:16:17;101277.09;;;15.36;71.27
55801;BME280;41730;51.960;20.158;2022-10-17T06:18:46;101280.17;;;15.41;71.00
55801;BME280;41730;51.960;20.158;2022-10-17T06:21:19;101277.39;;;15.55;70.82
55801;BME280;41730;51.960;20.158;2022-10-17T06:23:49;101276.98;;;15.76;69.87
55801;BME280;41730;51.960;20.158;2022-10-17T06:26:18;101280.58;;;15.67;69.92
55801;BME280;41730;51.960;20.158;2022-10-17T06:28:47;101286.35;;;15.68;69.93
55801;BME280;41730;51.960;20.158;2022-10-17T06:31:16;101285.36;;;15.61;70.13
55801;BME280;41730;51.960;20.158;2022-10-17T06:33:45;101280.27;;;15.61;70.44
55801;BME280;41730;51.960;20.158;2022-10-17T06:36:14;101276.14;;;15.74;70.23
55801;BME280;41730;51.960;20.158;2022-10-17T06:38:43;101278.79;;;15.66;70.48
55801;BME280;41730;51.960;20.158;2022-10-17T06:41:13;101277.44;;;15.91;70.31
55801;BME280;41730;51.960;20.158;2022-10-17T06:43:44;101278.81;;;16.19;69.74
55801;BME280;41730;51.960;20.158;2022-10-17T06:46:14;101280.85;;;16.42;68.96
55801;BME280;41730;51.960;20.158;2022-10-17T06:48:44;101282.75;;;16.47;68.72
55801;BME280;41730;51.960;20.158;2022-10-17T06:51:13;101281.59;;;16.54;68.77
55801;BME280;41730;51.960;20.158;2022-10-17T06:53:42;101283.82;;;16.62;68.20
55801;BME280;41730;51.960;20.158;2022-10-17T06:56:11;101286.73;;;16.57;68.50
55801;BME280;41730;51.960;20.158;2022-10-17T06:58:40;101292.88;;;16.66;68.72
55801;BME280;41730;51.960;20.158;2022-10-17T07:01:10;101298.55;;;16.91;68.09
55801;BME280;41730;51.960;20.158;2022-10-17T07:03:40;101296.14;;;17.08;67.84
55801;BME280;41730;51.960;20.158;2022-10-17T07:06:09;101296.29;;;17.00;67.91
55801;BME280;41730;51.960;20.158;2022-10-17T07:08:40;101297.66;;;16.99;68.34
55801;BME280;41730;51.960;20.158;2022-10-17T07:11:10;101300.73;;;16.87;69.00
55801;BME280;41730;51.960;20.158;2022-10-17T07:13:40;101309.56;;;16.89;69.18
55801;BME280;41730;51.960;20.158;2022-10-17T07:16:09;101314.51;;;17.05;69.17
55801;BME280;41730;51.960;20.158;2022-10-17T07:18:38;101318.58;;;17.22;69.53
55801;BME280;41730;51.960;20.158;2022-10-17T07:21:08;101314.66;;;17.54;69.06
55801;BME280;41730;51.960;20.158;2022-10-17T07:23:37;101308.86;;;18.18;67.50
55801;BME280;41730;51.960;20.158;2022-10-17T07:26:08;101312.10;;;18.67;66.44
55801;BME280;41730;51.960;20.158;2022-10-17T07:28:39;101306.42;;;18.90;66.01
55801;BME280;41730;51.960;20.158;2022-10-17T07:31:09;101303.60;;;19.28;65.11
55801;BME280;41730;51.960;20.158;2022-10-17T07:33:38;101307.14;;;19.58;64.37
55801;BME280;41730;51.960;20.158;2022-10-17T07:36:08;101309.73;;;19.85;63.65
55801;BME280;41730;51.960;20.158;2022-10-17T07:38:37;101312.52;;;19.92;63.32
55801;BME280;41730;51.960;20.158;2022-10-17T07:41:07;101317.83;;;20.12;62.89
55801;BME280;41730;51.960;20.158;2022-10-17T07:43:37;101311.73;;;20.11;63.03
55801;BME280;41730;51.960;20.158;2022-10-17T07:46:06;101315.94;;;20.30;62.77
55801;BME280;41730;51.960;20.158;2022-10-17T07:48:35;101324.67;;;20.67;61.73
55801;BME280;41730;51.960;20.158;2022-10-17T07:51:05;101325.48;;;20.79;61.22
55801;BME280;41730;51.960;20.158;2022-10-17T07:53:36;101323.89;;;20.83;60.86
55801;BME280;41730;51.960;20.158;2022-10-17T07:56:07;101324.98;;;20.74;60.79
55801;BME280;41730;51.960;20.158;2022-10-17T07:58:37;101329.23;;;20.79;60.44
55801;BME280;41730;51.960;20.158;2022-10-17T08:01:08;101332.23;;;20.84;60.18
55801;BME280;41730;51.960;20.158;2022-10-17T08:03:43;101332.08;;;20.94;60.12
55801;BME280;41730;51.960;20.158;2022-10-17T08:06:13;101339.36;;;21.19;59.63
55801;BME280;41730;51.960;20.158;2022-10-17T08:08:42;101342.66;;;21.36;58.96
55801;BME280;41730;51.960;20.158;2022-10-17T08:11:12;101339.29;;;21.47;58.46
55801;BME280;41730;51.960;20.158;2022-10-17T08:13:42;101340.20;;;21.58;58.15
55801;BME280;41730;51.960;20.158;2022-10-17T08:16:12;101346.96;;;21.68;57.87
55801;BME280;41730;51.960;20.158;2022-10-17T08:18:41;101348.98;;;21.64;57.78
55801;BME280;41730;51.960;20.158;2022-10-17T08:21:11;101353.49;;;21.67;58.12
55801;BME280;41730;51.960;20.158;2022-10-17T08:23:40;101354.89;;;21.75;57.92
55801;BME280;41730;51.960;20.158;2022-10-17T08:26:10;101357.94;;;21.70;58.02
55801;BME280;41730;51.960;20.158;2022-10-17T08:28:40;101353.16;;;21.94;57.42
55801;BME280;41730;51.960;20.158;2022-10-17T08:31:11;101344.75;;;22.21;56.65
55801;BME280;41730;51.960;20.158;2022-10-17T08:33:40;101345.42;;;22.27;56.44
55801;BME280;41730;51.960;20.158;2022-10-17T08:36:11;101346.42;;;22.47;55.93
55801;BME280;41730;51.960;20.158;2022-10-17T08:38:40;101346.17;;;22.49;55.92
55801;BME280;41730;51.960;20.158;2022-10-17T08:41:18;101346.23;;;22.56;55.64
55801;BME280;41730;51.960;20.158;2022-10-17T08:44:04;101349.72;;;22.74;55.16
55801;BME280;41730;51.960;20.158;2022-10-17T08:46:40;101346.44;;;22.73;55.06
55801;BME280;41730;51.960;20.158;2022-10-17T08:49:14;101344.98;;;22.85;54.76
55801;BME280;41730;51.960;20.158;2022-10-17T08:51:48;101345.70;;;22.96;54.34
55801;BME280;41730;51.960;20.158;2022-10-17T08:54:21;101345.50;;;23.01;54.03
55801;BME280;41730;51.960;20.158;2022-10-17T08:56:54;101342.73;;;22.83;53.97
55801;BME280;41730;51.960;20.158;2022-10-17T08:59:27;101343.56;;;22.71;54.13
55801;BME280;41730;51.960;20.158;2022-10-17T09:01:59;101341.41;;;22.64;54.14
55801;BME280;41730;51.960;20.158;2022-10-17T09:04:42;101337.30;;;22.53;54.40
55801;BME280;41730;51.960;20.158;2022-10-17T09:07:19;101334.17;;;22.55;54.44
55801;BME280;41730;51.960;20.158;2022-10-17T09:09:56;101333.89;;;22.62;54.40
55801;BME280;41730;51.960;20.158;2022-10-17T09:12:32;101327.63;;;22.82;53.91
55801;BME280;41730;51.960;20.158;2022-10-17T09:15:30;101328.12;;;22.87;53.63
55801;BME280;41730;51.960;20.158;2022-10-17T09:18:06;101330.60;;;23.07;53.20
55801;BME280;41730;51.960;20.158;2022-10-17T09:20:41;101329.31;;;22.94;53.49
55801;BME280;41730;51.960;20.158;2022-10-17T09:23:15;101327.19;;;22.83;53.75
55801;BME280;41730;51.960;20.158;2022-10-17T09:25:46;101326.98;;;22.72;53.90
55801;BME280;41730;51.960;20.158;2022-10-17T09:28:18;101327.50;;;22.73;53.89
55801;BME280;41730;51.960;20.158;2022-10-17T09:30:53;101328.84;;;22.81;53.82
55801;BME280;41730;51.960;20.158;2022-10-17T09:33:26;101330.23;;;22.78;53.85
55801;BME280;41730;51.960;20.158;2022-10-17T09:36:18;101327.51;;;22.85;53.76
55801;BME280;41730;51.960;20.158;2022-10-17T09:38:49;101330.06;;;22.92;53.25
55801;BME280;41730;51.960;20.158;2022-10-17T09:41:21;101330.71;;;22.82;53.31
55801;BME280;41730;51.960;20.158;2022-10-17T09:44:17;101327.96;;;22.66;53.39
55801;BME280;41730;51.960;20.158;2022-10-17T09:46:55;101325.17;;;22.56;53.57
55801;BME280;41730;51.960;20.158;2022-10-17T09:49:30;101326.08;;;22.54;53.72
55801;BME280;41730;51.960;20.158;2022-10-17T09:52:01;101326.06;;;22.63;53.76
55801;BME280;41730;51.960;20.158;2022-10-17T09:54:40;101324.73;;;22.70;53.23
55801;BME280;41730;51.960;20.158;2022-10-17T09:57:11;101317.17;;;22.74;53.09
55801;BME280;41730;51.960;20.158;2022-10-17T09:59:41;101321.15;;;22.52;53.45
55801;BME280;41730;51.960;20.158;2022-10-17T10:02:20;101317.84;;;22.42;53.82
55801;BME280;41730;51.960;20.158;2022-10-17T10:04:54;101319.35;;;22.57;53.72
55801;BME280;41730;51.960;20.158;2022-10-17T10:07:35;101316.55;;;22.55;53.55
55801;BME280;41730;51.960;20.158;2022-10-17T10:10:07;101314.14;;;22.57;53.49
55801;BME280;41730;51.960;20.158;2022-10-17T10:13:03;101313.08;;;22.57;53.52
55801;BME280;41730;51.960;20.158;2022-10-17T10:15:35;101307.96;;;22.55;53.52
55801;BME280;41730;51.960;20.158;2022-10-17T10:18:31;101308.70;;;22.45;53.70
55801;BME280;41730;51.960;20.158;2022-10-17T10:21:06;101305.12;;;22.39;53.86
55801;BME280;41730;51.960;20.158;2022-10-17T10:23:37;101307.80;;;22.50;53.44
55801;BME280;41730;51.960;20.158;2022-10-17T10:26:17;101311.05;;;22.41;53.72
55801;BME280;41730;51.960;20.158;2022-10-17T10:28:58;101302.55;;;22.48;53.42
55801;BME280;41730;51.960;20.158;2022-10-17T10:31:34;101297.51;;;22.38;53.42
55801;BME280;41730;51.960;20.158;2022-10-17T10:34:14;101295.33;;;22.26;53.41
55801;BME280;41730;51.960;20.158;2022-10-17T10:36:46;101297.95;;;22.32;53.66
55801;BME280;41730;51.960;20.158;2022-10-17T10:39:28;101297.52;;;22.32;53.58
55801;BME280;41730;51.960;20.158;2022-10-17T10:41:59;101294.23;;;22.22;53.96
55801;BME280;41730;51.960;20.158;2022-10-17T10:44:29;101299.64;;;22.44;53.64
55801;BME280;41730;51.960;20.158;2022-10-17T10:47:23;101301.85;;;22.47;53.56
55801;BME280;41730;51.960;20.158;2022-10-17T10:50:08;101303.00;;;22.56;53.35
55801;BME280;41730;51.960;20.158;2022-10-17T10:52:40;101303.41;;;22.56;53.41
55801;BME280;41730;51.960;20.158;2022-10-17T10:55:22;101300.60;;;22.63;53.37
55801;BME280;41730;51.960;20.158;2022-10-17T10:57:55;101294.23;;;22.64;53.45
55801;BME280;41730;51.960;20.158;2022-10-17T11:00:27;101297.08;;;22.55;53.55
55801;BME280;41730;51.960;20.158;2022-10-17T11:03:03;101296.17;;;22.62;53.59
55801;BME280;41730;51.960;20.158;2022-10-17T11:05:43;101297.58;;;22.71;53.41
55801;BME280;41730;51.960;20.158;2022-10-17T11:08:15;101296.73;;;22.77;53.38
55801;BME280;41730;51.960;20.158;2022-10-17T11:10:57;101298.63;;;22.90;53.40
55801;BME280;41730;51.960;20.158;2022-10-17T11:13:33;101292.85;;;22.88;53.18
55801;BME280;41730;51.960;20.158;2022-10-17T11:16:14;101292.73;;;22.78;53.39
55801;BME280;41730;51.960;20.158;2022-10-17T11:18:51;101286.80;;;22.95;53.18
55801;BME280;41730;51.960;20.158;2022-10-17T11:21:33;101286.62;;;22.95;53.05
55801;BME280;41730;51.960;20.158;2022-10-17T11:24:07;101283.39;;;22.89;53.15
55801;BME280;41730;51.960;20.158;2022-10-17T11:26:44;101287.08;;;22.77;53.37
55801;BME280;41730;51.960;20.158;2022-10-17T11:29:13;101283.81;;;22.90;53.16
55801;BME280;41730;51.960;20.158;2022-10-17T11:31:49;101291.67;;;22.92;53.11
55801;BME280;41730;51.960;20.158;2022-10-17T11:34:22;101289.18;;;22.75;53.59
55801;BME280;41730;51.960;20.158;2022-10-17T11:36:55;101288.77;;;22.83;53.29
55801;BME280;41730;51.960;20.158;2022-10-17T11:39:30;101287.16;;;22.89;53.16
55801;BME280;41730;51.960;20.158;2022-10-17T11:42:05;101285.92;;;23.00;53.05
55801;BME280;41730;51.960;20.158;2022-10-17T11:44:36;101290.31;;;23.00;53.11
55801;BME280;41730;51.960;20.158;2022-10-17T11:47:10;101290.23;;;22.92;53.27
55801;BME280;41730;51.960;20.158;2022-10-17T11:49:46;101288.48;;;22.96;53.30
55801;BME280;41730;51.960;20.158;2022-10-17T11:52:27;101288.89;;;23.02;53.19
55801;BME280;41730;51.960;20.158;2022-10-17T11:55:22;101287.95;;;23.05;53.32
55801;BME280;41730;51.960;20.158;2022-10-17T11:58:14;101284.11;;;23.10;52.71
55801;BME280;41730;51.960;20.158;2022-10-17T12:00:53;101279.66;;;23.02;53.13
55801;BME280;41730;51.960;20.158;2022-10-17T12:03:33;101282.87;;;23.18;52.88
55801;BME280;41730;51.960;20.158;2022-10-17T12:06:14;101282.77;;;23.31;52.66
55801;BME280;41730;51.960;20.158;2022-10-17T12:08:51;101282.40;;;23.31;52.69
55801;BME280;41730;51.960;20.158;2022-10-17T12:11:32;101284.85;;;23.27;52.83
55801;BME280;41730;51.960;20.158;2022-10-17T12:14:02;101284.54;;;23.25;52.97
55801;BME280;41730;51.960;20.158;2022-10-17T12:16:45;101281.98;;;23.30;52.89
55801;BME280;41730;51.960;20.158;2022-10-17T12:19:22;101281.98;;;23.31;52.79
55801;BME280;41730;51.960;20.158;2022-10-17T12:21:56;101279.47;;;23.31;52.56
55801;BME280;41730;51.960;20.158;2022-10-17T12:24:33;101276.51;;;23.32;52.54
55801;BME280;41730;51.960;20.158;2022-10-17T12:27:21;101270.20;;;23.47;52.06
55801;BME280;41730;51.960;20.158;2022-10-17T12:29:50;101271.11;;;23.47;52.30
55801;BME280;41730;51.960;20.158;2022-10-17T12:32:26;101269.26;;;23.61;52.06
55801;BME280;41730;51.960;20.158;2022-10-17T12:35:13;101267.94;;;23.76;51.52
55801;BME280;41730;51.960;20.158;2022-10-17T12:38:22;101264.60;;;23.71;51.47
55801;BME280;41730;51.960;20.158;2022-10-17T12:40:59;101258.63;;;23.41;51.88
55801;BME280;41730;51.960;20.158;2022-10-17T12:43:57;101255.02;;;23.37;52.04
55801;BME280;41730;51.960;20.158;2022-10-17T12:46:55;101256.30;;;23.25;52.20
55801;BME280;41730;51.960;20.158;2022-10-17T12:49:41;101256.45;;;23.20;52.07
55801;BME280;41730;51.960;20.158;2022-10-17T12:52:19;101254.93;;;23.05;52.58
55801;BME280;41730;51.960;20.158;2022-10-17T12:54:52;101258.42;;;22.96;53.01
55801;BME280;41730;51.960;20.158;2022-10-17T12:57:52;101260.36;;;22.92;53.14
55801;BME280;41730;51.960;20.158;2022-10-17T13:00:33;101260.95;;;22.97;53.03
55801;BME280;41730;51.960;20.158;2022-10-17T13:03:09;101260.04;;;23.10;52.89
55801;BME280;41730;51.960;20.158;2022-10-17T13:05:42;101259.40;;;23.20;52.68
55801;BME280;41730;51.960;20.158;2022-10-17T13:08:17;101260.34;;;23.13;52.76
55801;BME280;41730;51.960;20.158;2022-10-17T13:10:46;101256.63;;;23.14;52.89
55801;BME280;41730;51.960;20.158;2022-10-17T13:13:22;101253.58;;;23.02;53.29